Flight Track Log - Related Links

Times and Time Zones

All times are in EST time to prevent confusion due to time zone crossing. See the N225SB flight status page for this flight to view local times or setup timezone preferences in your user account.

Time Position Orientation Groundspeed Altitude Reporting Facility
EST Latitude Longitude Course Direction KTS MPH feet Rate Location/Type
Wed 02:14:22 PM 43.1236 -77.6889 270° West 174 200 1,600  Level Cleveland Center
Wed 02:14:53 PM 43.1236 -77.7136 270° West 189 217 3,100 3,871 Climbing Cleveland Center
Wed 02:15:55 PM 43.0667 -77.7394 198° South 243 280 7,600 3,339 Climbing Cleveland Center
Wed 02:16:57 PM 42.9703 -77.7425 181° South 301 346 10,000 1,548 Climbing Cleveland Center
Wed 02:17:59 PM 42.8769 -77.7553 186° South 341 392 10,800 1,210 Climbing Cleveland Center
Wed 02:19:01 PM 42.7822 -77.8025 200° South 363 418 12,500 2,129 Climbing Cleveland Center
Wed 02:20:03 PM 42.6825 -77.8572 202° Southwest 394 453 15,200 2,806 Climbing Cleveland Center
Wed 02:21:05 PM 42.5731 -77.9528 213° Southwest 396 456 18,300 2,903 Climbing Cleveland Center
Wed 02:22:07 PM 42.4825 -78.0283 212° Southwest 387 445 21,200 2,565 Climbing Cleveland Center
Wed 02:23:09 PM 42.3944 -78.1022 212° Southwest 377 434 23,600 2,064 Climbing Cleveland Center
Wed 02:24:12 PM 42.3028 -78.1772 211° Southwest 385 443 25,500 1,440 Climbing Cleveland Center
Wed 02:25:14 PM 42.2081 -78.2575 212° Southwest 401 461 26,600 726 Climbing Cleveland Center
Wed 02:26:16 PM 42.0950 -78.3506 211° Southwest 433 498 27,000 532 Climbing Cleveland Center
Wed 02:27:18 PM 41.9869 -78.4422 212° Southwest 455 524 27,700 677 Climbing Cleveland Center
Wed 02:28:20 PM 41.8733 -78.5350 211° Southwest 474 545 28,400 871 Climbing Cleveland Center
Wed 02:29:22 PM 41.7353 -78.6486 212° Southwest 485 558 29,500 968 Climbing Cleveland Center
Wed 02:30:24 PM 41.6214 -78.7417 211° Southwest 485 558 30,400 871 Climbing Cleveland Center
Wed 02:31:26 PM 41.5053 -78.8358 211° Southwest 492 566 31,300 871 Climbing Cleveland Center
Wed 02:32:28 PM 41.3892 -78.9278 211° Southwest 491 565 32,200 871 Climbing Cleveland Center
Wed 02:33:30 PM 41.2494 -79.0419 212° Southwest 496 571 33,100 774 Climbing Cleveland Center
Wed 02:34:32 PM 41.1314 -79.1358 211° Southwest 500 575 33,800 768 Climbing Cleveland Center
Wed 02:35:35 PM 41.0047 -79.2378 211° Southwest 502 578 34,700 864 Climbing Cleveland Center
Wed 02:36:37 PM 40.8858 -79.3317 211° Southwest 499 574 35,600 823 Climbing Cleveland Center
Wed 02:37:39 PM 40.7678 -79.4258 211° Southwest 495 570 36,400 774 Climbing Cleveland Center
Wed 02:38:41 PM 40.6503 -79.5178 211° Southwest 490 564 37,200 823 Climbing Cleveland Center
Wed 02:39:43 PM 40.5361 -79.6078 211° Southwest 481 554 38,100 871 Climbing Cleveland Center
Wed 02:40:45 PM 40.4236 -79.6944 210° Southwest 469 540 39,000 435 Climbing Cleveland Center
Wed 02:41:47 PM 40.3119 -79.7822 211° Southwest 463 533 39,000 145 Level Cleveland Center
Wed 02:42:49 PM 40.1750 -79.8878 211° Southwest 469 540 39,300 484 Climbing Cleveland Center
Wed 02:43:51 PM 40.0650 -79.9728 211° Southwest 458 527 40,000 339 Climbing Cleveland Center
Wed 02:44:53 PM 39.9556 -80.0569 211° Southwest 451 519 40,000  Level Cleveland Center
Wed 02:45:55 PM 39.8483 -80.1386 210° Southwest 452 520 40,000  Level Cleveland Center
Wed 02:46:58 PM 39.7394 -80.2217 210° Southwest 454 522 40,000  Level Cleveland Center
Wed 02:48:00 PM 39.6297 -80.3050 210° Southwest 454 522 40,000  Level Cleveland Center
Wed 02:48:33 PM 39.5558 -80.3608 210° Southwest 457 526 40,000  Level Indianapolis Center
Wed 02:49:35 PM 39.4444 -80.4464 211° Southwest 463 533 40,000  Level Indianapolis Center
Wed 02:50:38 PM 39.3344 -80.5289 210° Southwest 459 528 40,000  Level Indianapolis Center
Wed 02:51:40 PM 39.2244 -80.6144 211° Southwest 460 529 40,000  Level Indianapolis Center
Wed 02:52:42 PM 39.1119 -80.6986 210° Southwest 462 532 40,000  Level Indianapolis Center
Wed 02:53:44 PM 38.9781 -80.7981 210° Southwest 462 532 40,000  Level Indianapolis Center
Wed 02:54:46 PM 38.8661 -80.8811 210° Southwest 461 531 40,000  Level Indianapolis Center
Wed 02:55:48 PM 38.7531 -80.9636 210° Southwest 464 534 40,000  Level Indianapolis Center
Wed 02:56:50 PM 38.6414 -81.0472 210° Southwest 460 529 40,000  Level Indianapolis Center
Wed 02:57:52 PM 38.5281 -81.1294 210° Southwest 461 531 40,000  Level Indianapolis Center
Wed 02:58:54 PM 38.4158 -81.2117 210° Southwest 459 528 40,000  Level Indianapolis Center
Wed 02:59:56 PM 38.3036 -81.2931 210° Southwest 454 522 40,000  Level Indianapolis Center
Wed 03:00:58 PM 38.1928 -81.3736 210° Southwest 459 528 40,000  Level Indianapolis Center
Wed 03:02:00 PM 38.0811 -81.4533 209° Southwest 457 526 40,000  Level Indianapolis Center
Wed 03:03:02 PM 37.9486 -81.5500 210° Southwest 455 524 40,000  Level Indianapolis Center
Wed 03:04:04 PM 37.8367 -81.6294 209° Southwest 458 527 40,000  Level Indianapolis Center
Wed 03:05:07 PM 37.7300 -81.7047 209° Southwest 458 527 40,000  Level Indianapolis Center
Wed 03:06:09 PM 37.6203 -81.7844 210° Southwest 453 521 40,000  Level Indianapolis Center
Wed 03:07:11 PM 37.4897 -81.8756 209° Southwest 456 525 40,000  Level Indianapolis Center
Wed 03:08:13 PM 37.3800 -81.9550 210° Southwest 452 520 40,000  Level Indianapolis Center
Wed 03:09:15 PM 37.2694 -82.0314 209° Southwest 452 520 40,000  Level Indianapolis Center
Wed 03:10:17 PM 37.1600 -82.1092 210° Southwest 451 519 40,000  Level Indianapolis Center
Wed 03:11:19 PM 37.0506 -82.1869 210° Southwest 449 517 40,000  Level Indianapolis Center
Wed 03:12:21 PM 36.9406 -82.2619 209° Southwest 448 516 40,000  Level Indianapolis Center
Wed 03:13:23 PM 36.8144 -82.3494 209° Southwest 441 507 40,000 -339 Level Indianapolis Center
Wed 03:14:25 PM 36.7078 -82.4250 210° Southwest 437 503 39,300 -871 Descending Indianapolis Center
Wed 03:15:27 PM 36.6003 -82.4983 209° Southwest 435 501 38,200 -848 Descending Indianapolis Center
Wed 03:15:57 PM 36.5414 -82.5400 210° Southwest 447 514 38,000 -133 Descending Atlanta Center
Wed 03:16:57 PM 36.4339 -82.6144 209° Southwest 447 514 38,000  Level Atlanta Center
Wed 03:17:57 PM 36.3242 -82.6883 208° Southwest 452 520 38,000  Level Atlanta Center
Wed 03:18:57 PM 36.2164 -82.7622 209° Southwest 452 520 38,000  Level Atlanta Center
Wed 03:19:57 PM 36.1067 -82.8358 208° Southwest 452 520 38,000 -350 Level Atlanta Center
Wed 03:20:57 PM 36.0031 -82.9069 209° Southwest 444 511 37,300 -1,300 Descending Atlanta Center
Wed 03:21:57 PM 35.8953 -82.9828 210° Southwest 439 505 35,400 -1,150 Descending Atlanta Center
Wed 03:22:57 PM 35.7894 -83.0531 208° Southwest 439 505 35,000 -200 Descending Atlanta Center
Wed 03:23:57 PM 35.6900 -83.1386 215° Southwest 439 505 35,000 -150 Level Atlanta Center
Wed 03:24:57 PM 35.5986 -83.2111 213° Southwest 444 511 34,700 -1,650 Descending Atlanta Center
Wed 03:25:57 PM 35.4886 -83.3017 214° Southwest 437 503 31,700 -2,750 Descending Atlanta Center
Wed 03:26:57 PM 35.3869 -83.3892 215° Southwest 442 509 29,200 -2,400 Descending Atlanta Center
Wed 03:27:57 PM 35.2789 -83.4792 214° Southwest 450 518 26,900 -2,300 Descending Atlanta Center
Wed 03:28:57 PM 35.1708 -83.5686 214° Southwest 469 540 24,600 -2,350 Descending Atlanta Center
Wed 03:29:57 PM 35.0647 -83.6531 213° Southwest 469 540 22,200 -2,300 Descending Atlanta Center
Wed 03:30:57 PM 34.9583 -83.7269 210° Southwest 457 526 20,000 -2,050 Descending Atlanta Center
Wed 03:31:57 PM 34.8606 -83.7756 202° Southwest 433 498 18,100 -1,800 Descending Atlanta Center
Wed 03:32:57 PM 34.7583 -83.8314 204° Southwest 418 481 16,400 -1,900 Descending Atlanta Center
Wed 03:33:57 PM 34.6542 -83.8872 204° Southwest 413 475 14,300 -2,000 Descending Atlanta Center
Wed 03:34:57 PM 34.5581 -83.9403 204° Southwest 389 448 12,400 -1,850 Descending Atlanta Center
Wed 03:35:57 PM 34.4725 -83.9883 205° Southwest 350 403 10,600 -1,650 Descending Atlanta Center
Wed 03:36:57 PM 34.3892 -84.0336 204° Southwest 326 375 9,100 -1,300 Descending Atlanta Center
Wed 03:37:57 PM 34.3119 -84.0739 203° Southwest 301 346 8,000 -550 Descending Atlanta Center
Wed 03:38:57 PM 34.2431 -84.1117 204° Southwest 295 339 8,000 -650 Level Atlanta Center
Wed 03:39:57 PM 34.1992 -84.1869 235° Southwest 268 308 6,700 -1,000 Descending Atlanta Center
Wed 03:40:57 PM 34.1614 -84.2697 241° Southwest 278 320 6,000 -900 Descending Atlanta Center
Wed 03:41:57 PM 34.1153 -84.3450 234° Southwest 283 326 4,900 -1,000 Descending Atlanta Center
Wed 03:42:57 PM 34.0756 -84.4150 236° Southwest 278 320 4,000 -450 Descending Atlanta Center
Wed 03:43:57 PM 34.0397 -84.4800 236° Southwest 248 285 4,000  Level Atlanta Center
Wed 03:44:57 PM 33.9958 -84.5250 220° Southwest 223 257 4,000 -50 Level Atlanta Center
Wed 03:45:57 PM 33.9331 -84.5269 181° South 207 238 3,900 -550 Descending Atlanta Center
Wed 03:46:57 PM 33.8642 -84.5217 176° South 230 265 2,900 -830 Descending Atlanta Center
Wed 03:47:31 PM 33.8500 -84.5000 128° Southeast 186 214 2,600 -660 Descending Atlanta TRACON
Wed 03:48:37 PM 33.8000 -84.4667 151° Southeast 157 181 1,800 -727 Descending Atlanta TRACON
Wed 03:50:00 PM 33.7667 -84.5167 197° South  Level FlightAware Approximate
Wed 03:57:00 PM 33.7791 -84.5214 197° South  Level Estimated
Wed 03:58:00 PM 33.7791 -84.5214 197° South  Level Estimated

Login

Don't have an account? Register now (free) for customized features, flight alerts, and more!